Time;durP1;ratioP1;P1;durP2;ratioP2;P2;SDS_P1;SDS_P2;PMS_P1;PMS_P2;Temp;Humidity;BMP_temperature;BMP_pressure;BME280_temperature;BME280_humidity;BME280_pressure;Samples;Min_cycle;Max_cycle;Signal;HPM_P1;HPM_P2
2023/03/14 00:01:50;;;;;;;;;;;18.10;67.70;;;;;;5086481;27;43742;-88
2023/03/14 00:04:15;;;;;;;;;;;18.20;67.70;;;;;;5084506;27;43096;-88
2023/03/14 00:06:47;;;;;;;;;;;18.10;67.70;;;;;;5069131;28;42863;-88
2023/03/14 00:09:15;;;;;;;;;;;18.10;66.70;;;;;;5080698;22;43736;-88
2023/03/14 00:14:35;;;;;;;;;;;18.10;67.80;;;;;;5024052;28;43066;-88
2023/03/14 00:17:01;;;;;;;;;;;18.20;67.80;;;;;;5025875;28;43902;-88
2023/03/14 00:22:23;;;;;;;;;;;18.10;66.80;;;;;;5024268;28;43993;-88
2023/03/14 00:24:51;;;;;;;;;;;18.10;66.80;;;;;;5025677;28;43044;-88
2023/03/14 00:27:17;;;;;;;;;;;18.20;66.90;;;;;;5025713;28;43719;-88
2023/03/14 00:29:48;;;;;;;;;;;18.20;68.00;;;;;;5025977;28;43015;-89
2023/03/14 00:32:14;;;;;;;;;;;18.10;66.90;;;;;;5025009;28;43817;-88
2023/03/14 00:34:48;;;;;;;;;;;18.20;68.20;;;;;;5003219;28;43143;-88
2023/03/14 00:37:14;;;;;;;;;;;18.20;68.30;;;;;;5006931;28;43049;-89
2023/03/14 00:39:40;;;;;;;;;;;18.20;68.40;;;;;;5016817;28;43121;-88
2023/03/14 00:42:05;;;;;;;;;;;18.20;68.40;;;;;;5005478;28;45141;-89
2023/03/14 00:44:45;;;;;;;;;;;18.20;67.30;;;;;;5017209;28;60164;-88
2023/03/14 00:47:11;;;;;;;;;;;18.10;68.50;;;;;;5020543;28;44085;-88
2023/03/14 00:49:39;;;;;;;;;;;18.10;68.70;;;;;;5020802;28;43525;-89
2023/03/14 00:52:04;;;;;;;;;;;18.00;68.60;;;;;;5041984;28;43786;-88
2023/03/14 00:54:30;;;;;;;;;;;18.00;68.70;;;;;;5052810;28;42972;-88
2023/03/14 00:56:56;;;;;;;;;;;18.20;68.60;;;;;;5051053;28;44413;-87
2023/03/14 00:59:21;;;;;;;;;;;18.20;68.50;;;;;;5045321;28;42953;-88
2023/03/14 01:01:47;;;;;;;;;;;18.00;69.30;;;;;;5052804;28;43376;-87
2023/03/14 01:04:13;;;;;;;;;;;18.10;68.50;;;;;;5063938;28;42832;-87
2023/03/14 01:06:38;;;;;;;;;;;18.30;69.30;;;;;;5063622;28;43433;-88
2023/03/14 01:09:04;;;;;;;;;;;18.20;68.50;;;;;;5048161;28;43188;-88
2023/03/14 01:11:31;;;;;;;;;;;18.30;68.70;;;;;;5084439;28;43014;-87
2023/03/14 01:13:56;;;;;;;;;;;18.20;68.60;;;;;;5084665;28;42982;-88
2023/03/14 01:16:23;;;;;;;;;;;18.10;69.30;;;;;;5068442;28;42981;-88
2023/03/14 01:18:48;;;;;;;;;;;18.20;69.40;;;;;;5064833;28;42894;-86
2023/03/14 01:21:15;;;;;;;;;;;18.20;68.90;;;;;;5064622;28;42930;-87
2023/03/14 01:23:41;;;;;;;;;;;18.20;69.60;;;;;;5065208;28;42749;-86
2023/03/14 01:26:13;;;;;;;;;;;18.00;69.70;;;;;;5079082;27;42984;-87
2023/03/14 01:28:39;;;;;;;;;;;18.10;68.60;;;;;;5052529;28;43063;-86
2023/03/14 01:31:05;;;;;;;;;;;18.10;70.00;;;;;;5075928;28;44033;-88
2023/03/14 01:33:31;;;;;;;;;;;18.10;69.70;;;;;;5085115;28;42812;-87
2023/03/14 01:35:57;;;;;;;;;;;18.00;70.10;;;;;;5065811;28;45021;-88
2023/03/14 01:38:22;;;;;;;;;;;18.10;70.20;;;;;;5084722;28;42867;-89
2023/03/14 01:40:48;;;;;;;;;;;18.10;70.20;;;;;;5074793;28;43361;-85
2023/03/14 01:43:15;;;;;;;;;;;18.00;70.10;;;;;;5077764;28;42957;-88
2023/03/14 01:45:59;;;;;;;;;;;18.10;70.20;;;;;;5084966;28;43576;-88
2023/03/14 01:48:25;;;;;;;;;;;17.90;68.80;;;;;;5083459;28;43132;-88
2023/03/14 01:50:51;;;;;;;;;;;18.10;70.50;;;;;;5082550;28;43980;-87
2023/03/14 01:53:17;;;;;;;;;;;18.10;69.60;;;;;;5084756;28;43115;-87
2023/03/14 01:55:42;;;;;;;;;;;18.00;70.20;;;;;;5065932;28;44695;-85
2023/03/14 01:58:08;;;;;;;;;;;18.00;69.60;;;;;;5085544;28;43427;-86
2023/03/14 02:00:33;;;;;;;;;;;18.00;70.20;;;;;;5085020;28;43592;-89
2023/03/14 02:03:06;;;;;;;;;;;17.90;70.10;;;;;;5083145;28;43018;-89
2023/03/14 02:05:34;;;;;;;;;;;18.10;69.00;;;;;;5084563;28;43694;-87
2023/03/14 02:08:00;;;;;;;;;;;18.10;70.00;;;;;;5085217;28;42982;-90
2023/03/14 02:10:34;;;;;;;;;;;18.30;70.20;;;;;;5079317;28;43792;-89
2023/03/14 02:13:01;;;;;;;;;;;18.10;68.90;;;;;;5065126;28;43084;-87
2023/03/14 02:15:27;;;;;;;;;;;18.10;70.20;;;;;;5064475;28;43897;-88
2023/03/14 02:17:53;;;;;;;;;;;18.10;70.10;;;;;;5065225;28;42970;-91
2023/03/14 02:20:21;;;;;;;;;;;17.90;70.00;;;;;;5083598;28;43080;-91
2023/03/14 02:22:47;;;;;;;;;;;18.00;68.90;;;;;;5067320;28;42945;-90
2023/03/14 02:25:21;;;;;;;;;;;18.10;70.10;;;;;;5046152;28;43773;-91
2023/03/14 02:27:47;;;;;;;;;;;18.20;69.00;;;;;;5065127;28;43014;-88
2023/03/14 02:30:14;;;;;;;;;;;18.00;70.00;;;;;;5063753;28;42974;-89
2023/03/14 02:32:42;;;;;;;;;;;18.20;70.10;;;;;;5065332;28;42883;-86
2023/03/14 02:35:11;;;;;;;;;;;17.90;70.00;;;;;;5064142;28;43461;-88
2023/03/14 02:37:40;;;;;;;;;;;18.10;70.00;;;;;;5063839;28;42963;-90
2023/03/14 02:40:07;;;;;;;;;;;18.20;70.30;;;;;;5069598;28;42907;-86
2023/03/14 02:42:32;;;;;;;;;;;18.00;69.80;;;;;;5075630;28;42998;-89
2023/03/14 02:45:09;;;;;;;;;;;17.40;69.80;;;;;;5063552;28;43696;-89
2023/03/14 02:47:37;;;;;;;;;;;18.30;69.00;;;;;;5071816;28;42981;-88
2023/03/14 02:50:07;;;;;;;;;;;18.00;70.20;;;;;;5084031;28;43067;-89
2023/03/14 02:52:33;;;;;;;;;;;18.00;70.00;;;;;;5073865;28;43153;-88
2023/03/14 02:54:58;;;;;;;;;;;18.10;69.70;;;;;;5068502;28;43022;-88
2023/03/14 02:57:24;;;;;;;;;;;18.00;70.30;;;;;;5057067;28;43027;-87
2023/03/14 02:59:49;;;;;;;;;;;18.20;69.70;;;;;;5074341;28;43087;-89
2023/03/14 03:02:15;;;;;;;;;;;18.20;70.50;;;;;;5078193;28;43056;-88
2023/03/14 03:04:40;;;;;;;;;;;18.10;70.60;;;;;;5067171;28;43573;-88
2023/03/14 03:07:06;;;;;;;;;;;18.10;69.90;;;;;;5066055;28;43185;-89
2023/03/14 03:09:31;;;;;;;;;;;18.10;70.90;;;;;;5084483;28;43007;-88
2023/03/14 03:11:57;;;;;;;;;;;18.10;70.00;;;;;;5084678;28;42961;-88
2023/03/14 03:14:22;;;;;;;;;;;17.90;70.70;;;;;;5070611;28;43410;-87
2023/03/14 03:16:48;;;;;;;;;;;18.00;69.90;;;;;;5064240;28;42908;-88
2023/03/14 03:19:14;;;;;;;;;;;17.90;70.70;;;;;;5063337;28;43062;-88
2023/03/14 03:21:39;;;;;;;;;;;18.10;70.90;;;;;;5063752;28;42930;-89
2023/03/14 03:24:06;;;;;;;;;;;18.10;71.00;;;;;;5071679;28;43442;-88
2023/03/14 03:26:33;;;;;;;;;;;18.10;70.80;;;;;;5083747;28;42908;-88
2023/03/14 03:28:58;;;;;;;;;;;18.20;70.80;;;;;;5079276;28;43960;-89
2023/03/14 03:31:24;;;;;;;;;;;18.00;70.20;;;;;;5065138;28;43140;-87
2023/03/14 03:33:49;;;;;;;;;;;18.10;70.90;;;;;;5086796;28;43840;-89
2023/03/14 03:36:15;;;;;;;;;;;18.00;70.90;;;;;;5085266;28;42993;-87
2023/03/14 03:38:40;;;;;;;;;;;18.00;70.80;;;;;;5075181;28;42978;-89
2023/03/14 03:41:06;;;;;;;;;;;18.10;70.20;;;;;;5087751;28;43022;-88
2023/03/14 03:43:32;;;;;;;;;;;18.10;70.90;;;;;;5084395;28;43542;-89
2023/03/14 03:45:57;;;;;;;;;;;18.10;70.20;;;;;;5062364;28;43130;-89
2023/03/14 03:48:23;;;;;;;;;;;18.10;70.20;;;;;;5067195;28;43576;-89
2023/03/14 03:50:48;;;;;;;;;;;18.00;70.70;;;;;;5067143;28;43011;-89
2023/03/14 03:53:14;;;;;;;;;;;18.10;71.00;;;;;;5067970;28;43480;-88
2023/03/14 03:55:43;;;;;;;;;;;18.20;70.90;;;;;;5078044;28;42954;-84
2023/03/14 03:58:08;;;;;;;;;;;18.10;69.70;;;;;;5085648;27;44048;-89
2023/03/14 04:00:34;;;;;;;;;;;18.10;71.10;;;;;;5068378;28;42918;-88
2023/03/14 04:03:00;;;;;;;;;;;18.00;71.00;;;;;;5083409;28;43838;-88
2023/03/14 04:05:25;;;;;;;;;;;18.30;71.20;;;;;;5087397;28;43015;-88
2023/03/14 04:07:51;;;;;;;;;;;18.10;70.30;;;;;;5074792;28;44241;-87
2023/03/14 04:10:17;;;;;;;;;;;18.10;70.30;;;;;;5077570;28;42971;-88
2023/03/14 04:12:42;;;;;;;;;;;18.10;70.90;;;;;;5074305;28;43678;-88
2023/03/14 04:15:08;;;;;;;;;;;18.20;71.00;;;;;;5074742;28;43003;-88
2023/03/14 04:17:33;;;;;;;;;;;18.10;70.30;;;;;;5080880;28;43009;-86
2023/03/14 04:19:59;;;;;;;;;;;18.10;70.50;;;;;;5077687;28;43018;-88
2023/03/14 04:22:24;;;;;;;;;;;18.20;71.20;;;;;;5084272;28;43198;-88
2023/03/14 04:24:50;;;;;;;;;;;18.20;71.20;;;;;;5084158;28;43338;-88
2023/03/14 04:27:15;;;;;;;;;;;18.10;70.50;;;;;;5066118;28;43017;-86
2023/03/14 04:29:44;;;;;;;;;;;18.80;71.50;;;;;;5066198;28;42883;-87
2023/03/14 04:32:10;;;;;;;;;;;18.10;71.00;;;;;;5077753;28;42985;-87
2023/03/14 04:34:35;;;;;;;;;;;18.10;71.00;;;;;;5077465;28;42950;-84
2023/03/14 04:37:01;;;;;;;;;;;18.20;70.50;;;;;;5070465;28;43029;-88
2023/03/14 04:39:26;;;;;;;;;;;18.30;70.60;;;;;;5071496;28;42991;-88
2023/03/14 04:41:52;;;;;;;;;;;18.20;71.30;;;;;;5083716;27;43030;-88
2023/03/14 04:44:18;;;;;;;;;;;18.20;70.60;;;;;;5086762;28;42850;-87
2023/03/14 04:46:43;;;;;;;;;;;18.30;70.90;;;;;;5086268;28;42989;-89
2023/03/14 04:49:09;;;;;;;;;;;18.00;70.50;;;;;;5068335;28;42895;-88
2023/03/14 04:51:34;;;;;;;;;;;18.10;71.30;;;;;;5084066;28;42919;-88
2023/03/14 04:54:00;;;;;;;;;;;18.10;70.80;;;;;;5076279;28;43795;-88
2023/03/14 04:56:25;;;;;;;;;;;18.20;71.50;;;;;;5056770;28;44906;-88
2023/03/14 04:58:51;;;;;;;;;;;18.20;70.80;;;;;;5081410;28;42974;-87
2023/03/14 05:01:17;;;;;;;;;;;18.20;71.40;;;;;;5074984;28;42898;-87
2023/03/14 05:03:43;;;;;;;;;;;18.10;71.40;;;;;;5047480;28;42879;-88
2023/03/14 05:06:08;;;;;;;;;;;18.00;70.80;;;;;;5066737;28;42950;-88
2023/03/14 05:08:34;;;;;;;;;;;18.10;70.90;;;;;;5070429;27;43073;-88
2023/03/14 05:10:59;;;;;;;;;;;18.20;70.90;;;;;;5072450;28;43412;-89
2023/03/14 05:13:25;;;;;;;;;;;18.20;71.50;;;;;;5067675;28;43033;-89
2023/03/14 05:15:51;;;;;;;;;;;18.10;71.50;;;;;;5075573;28;43780;-88
2023/03/14 05:18:16;;;;;;;;;;;18.00;71.50;;;;;;5066864;28;43006;-89
2023/03/14 05:20:45;;;;;;;;;;;18.10;71.50;;;;;;5077254;27;42910;-89
2023/03/14 05:23:10;;;;;;;;;;;18.20;70.80;;;;;;5074842;28;42946;-89
2023/03/14 05:25:36;;;;;;;;;;;18.40;71.70;;;;;;5069816;28;43330;-88
2023/03/14 05:28:01;;;;;;;;;;;18.20;71.60;;;;;;5079511;28;42926;-90
2023/03/14 05:30:28;;;;;;;;;;;18.20;71.50;;;;;;5073803;28;43334;-89
2023/03/14 05:32:53;;;;;;;;;;;18.10;71.60;;;;;;5068822;28;43018;-87
2023/03/14 05:35:19;;;;;;;;;;;17.90;71.50;;;;;;5072236;28;43713;-87
2023/03/14 05:37:45;;;;;;;;;;;18.30;71.70;;;;;;5071240;28;42942;-89
2023/03/14 05:40:10;;;;;;;;;;;18.10;71.60;;;;;;5073534;28;43557;-88
2023/03/14 05:42:36;;;;;;;;;;;18.10;71.60;;;;;;5071060;28;43138;-84
2023/03/14 05:45:01;;;;;;;;;;;18.10;71.60;;;;;;5077409;28;42993;-86
2023/03/14 05:47:27;;;;;;;;;;;18.10;72.00;;;;;;5077082;28;43016;-86
2023/03/14 05:49:53;;;;;;;;;;;18.10;71.80;;;;;;5077635;27;43846;-86
2023/03/14 05:52:18;;;;;;;;;;;17.80;72.10;;;;;;5076208;28;42929;-87
2023/03/14 05:54:44;;;;;;;;;;;17.90;72.10;;;;;;5076306;27;43222;-83
2023/03/14 05:57:09;;;;;;;;;;;17.80;72.40;;;;;;5068471;28;43054;-86
2023/03/14 05:59:35;;;;;;;;;;;17.80;72.80;;;;;;5084868;28;43691;-89
2023/03/14 06:02:00;;;;;;;;;;;17.70;73.10;;;;;;5083815;28;42933;-88
2023/03/14 06:04:26;;;;;;;;;;;17.70;73.20;;;;;;5084426;28;43514;-87
2023/03/14 06:06:51;;;;;;;;;;;17.60;73.30;;;;;;5082278;27;42951;-84
2023/03/14 06:09:19;;;;;;;;;;;17.60;73.70;;;;;;5063438;28;43524;-91
2023/03/14 06:11:46;;;;;;;;;;;17.50;72.90;;;;;;5084675;28;42950;-83
2023/03/14 06:14:11;;;;;;;;;;;17.60;73.90;;;;;;5073656;27;44671;-84
2023/03/14 06:16:37;;;;;;;;;;;17.60;74.20;;;;;;5069039;28;42986;-84
2023/03/14 06:19:02;;;;;;;;;;;17.70;75.40;;;;;;5064022;28;43021;-83
2023/03/14 06:21:28;;;;;;;;;;;17.60;74.70;;;;;;5065456;28;42852;-85
2023/03/14 06:23:53;;;;;;;;;;;17.60;74.70;;;;;;5074639;28;43563;-83
2023/03/14 06:26:19;;;;;;;;;;;17.60;74.60;;;;;;5064886;28;42928;-84
2023/03/14 06:28:45;;;;;;;;;;;17.70;73.80;;;;;;5046969;28;45308;-83
2023/03/14 06:31:10;;;;;;;;;;;17.70;74.40;;;;;;5064635;28;43025;-83
2023/03/14 06:33:36;;;;;;;;;;;17.70;73.70;;;;;;5064152;28;43838;-84
2023/03/14 06:36:01;;;;;;;;;;;17.80;74.10;;;;;;5046605;28;43201;-84
2023/03/14 06:38:27;;;;;;;;;;;17.90;74.00;;;;;;5064347;28;42889;-83
2023/03/14 06:40:52;;;;;;;;;;;17.80;73.90;;;;;;5065208;28;42848;-83
2023/03/14 06:43:18;;;;;;;;;;;17.80;73.50;;;;;;5064819;28;42926;-83
2023/03/14 06:45:43;;;;;;;;;;;17.80;73.30;;;;;;5046469;28;42930;-83
2023/03/14 06:48:09;;;;;;;;;;;17.90;74.00;;;;;;5064729;28;43552;-84
2023/03/14 06:50:34;;;;;;;;;;;17.90;73.70;;;;;;5064671;28;42863;-84
2023/03/14 06:53:00;;;;;;;;;;;18.10;73.70;;;;;;5064457;28;43600;-83
2023/03/14 06:55:26;;;;;;;;;;;17.90;73.60;;;;;;5063943;28;42879;-82
2023/03/14 06:57:51;;;;;;;;;;;17.90;73.70;;;;;;5064421;28;42794;-83
2023/03/14 07:00:17;;;;;;;;;;;18.00;73.80;;;;;;5064591;28;42922;-84
2023/03/14 07:02:42;;;;;;;;;;;18.00;73.60;;;;;;5063967;28;43605;-83
2023/03/14 07:05:10;;;;;;;;;;;18.00;74.00;;;;;;5064863;28;43126;-84
2023/03/14 07:07:35;;;;;;;;;;;17.90;73.50;;;;;;5067355;28;44350;-83
2023/03/14 07:10:01;;;;;;;;;;;18.00;73.70;;;;;;5067660;28;42808;-83
2023/03/14 07:12:26;;;;;;;;;;;18.00;73.60;;;;;;5067890;28;42936;-83
2023/03/14 07:14:52;;;;;;;;;;;18.00;73.70;;;;;;5068454;28;42938;-84
2023/03/14 07:17:17;;;;;;;;;;;18.00;73.80;;;;;;5067778;28;43442;-84
2023/03/14 07:19:43;;;;;;;;;;;18.00;73.30;;;;;;5049610;28;43007;-83
2023/03/14 07:22:08;;;;;;;;;;;17.90;73.90;;;;;;5067864;28;43915;-83
2023/03/14 07:24:34;;;;;;;;;;;18.10;73.40;;;;;;5067810;28;43016;-83
2023/03/14 07:26:59;;;;;;;;;;;18.00;73.50;;;;;;5067334;28;43529;-83
2023/03/14 07:29:25;;;;;;;;;;;18.00;74.30;;;;;;5068352;28;42895;-83
2023/03/14 07:31:50;;;;;;;;;;;18.00;74.20;;;;;;5067615;28;43021;-83
2023/03/14 07:34:16;;;;;;;;;;;17.90;74.10;;;;;;5067995;28;43016;-83
2023/03/14 07:36:41;;;;;;;;;;;18.00;74.10;;;;;;5067611;28;43508;-83
2023/03/14 07:39:07;;;;;;;;;;;18.00;74.50;;;;;;5067200;28;43006;-83
2023/03/14 07:41:32;;;;;;;;;;;18.00;74.50;;;;;;5067353;28;43610;-83
2023/03/14 07:43:58;;;;;;;;;;;18.00;74.70;;;;;;5067432;28;43599;-83
2023/03/14 07:46:23;;;;;;;;;;;18.00;74.30;;;;;;5067552;28;43768;-84
2023/03/14 07:48:49;;;;;;;;;;;17.90;75.40;;;;;;5067549;28;42838;-83
2023/03/14 07:51:14;;;;;;;;;;;17.90;74.80;;;;;;5066948;28;43536;-83
2023/03/14 07:53:40;;;;;;;;;;;17.90;75.40;;;;;;5067401;28;42801;-83
2023/03/14 07:56:05;;;;;;;;;;;17.90;75.50;;;;;;5066723;28;42938;-82
2023/03/14 07:58:32;;;;;;;;;;;18.40;76.60;;;;;;5066875;28;42954;-83
2023/03/14 08:00:58;;;;;;;;;;;;;;;;;;5066993;28;42971;-83
2023/03/14 08:03:24;;;;;;;;;;;;;;;;;;5067158;28;43037;-83
2023/03/14 08:05:50;;;;;;;;;;;;;;;;;;5066914;28;43010;-83
2023/03/14 08:08:16;;;;;;;;;;;;;;;;;;5067001;28;42951;-83
2023/03/14 08:10:42;;;;;;;;;;;;;;;;;;5066276;28;43761;-83
2023/03/14 08:13:07;;;;;;;;;;;;;;;;;;5066905;28;42892;-84
2023/03/14 08:15:33;;;;;;;;;;;;;;;;;;5067068;28;43601;-83
2023/03/14 08:17:59;;;;;;;;;;;;;;;;;;5067049;28;42818;-83
2023/03/14 08:20:26;;;;;;;;;;;17.90;76.50;;;;;;5067157;28;43365;-83
2023/03/14 08:22:52;;;;;;;;;;;17.90;77.30;;;;;;5067050;28;42765;-83
2023/03/14 08:25:17;;;;;;;;;;;17.90;76.40;;;;;;5066772;28;43487;-83
2023/03/14 08:27:43;;;;;;;;;;;17.90;77.10;;;;;;5066968;28;42833;-82
2023/03/14 08:30:13;;;;;;;;;;;17.90;78.00;;;;;;5066896;28;43135;-83
2023/03/14 08:32:38;;;;;;;;;;;17.80;75.80;;;;;;5048692;28;42952;-83
2023/03/14 08:35:05;;;;;;;;;;;17.90;76.40;;;;;;5066517;28;42979;-83
2023/03/14 08:37:31;;;;;;;;;;;17.90;76.70;;;;;;5066713;28;42825;-83
2023/03/14 08:39:57;;;;;;;;;;;;;;;;;;5066836;28;43098;-83
2023/03/14 08:42:22;;;;;;;;;;;;;;;;;;5066783;28;42859;-83
2023/03/14 08:44:48;;;;;;;;;;;;;;;;;;5066637;28;42891;-83
2023/03/14 08:47:14;;;;;;;;;;;;;;;;;;5066880;28;42970;-84
2023/03/14 08:49:40;;;;;;;;;;;;;;;;;;5066031;28;42988;-83
2023/03/14 08:52:06;;;;;;;;;;;;;;;;;;5066576;28;43027;-83
2023/03/14 08:54:32;;;;;;;;;;;;;;;;;;5066725;28;43632;-84
2023/03/14 08:56:58;;;;;;;;;;;;;;;;;;5066478;28;43060;-83
2023/03/14 08:59:24;;;;;;;;;;;;;;;;;;5065752;28;42951;-83
2023/03/14 09:01:50;;;;;;;;;;;;;;;;;;5066057;28;42924;-84
2023/03/14 09:04:15;;;;;;;;;;;;;;;;;;5066232;28;42829;-83
2023/03/14 09:06:41;;;;;;;;;;;;;;;;;;5066548;28;42736;-83
2023/03/14 09:09:07;;;;;;;;;;;;;;;;;;5065591;28;42915;-83
2023/03/14 09:11:33;;;;;;;;;;;;;;;;;;5047996;28;43055;-83
2023/03/14 09:13:59;;;;;;;;;;;;;;;;;;5066210;28;42970;-83
2023/03/14 09:16:25;;;;;;;;;;;;;;;;;;5066360;28;42848;-83
2023/03/14 09:18:54;;;;;;;;;;;;;;;;;;5065824;28;42999;-84
2023/03/14 09:21:20;;;;;;;;;;;18.10;75.30;;;;;;5066069;28;42953;-84
2023/03/14 09:23:45;;;;;;;;;;;17.90;75.50;;;;;;5047476;28;43623;-84
2023/03/14 09:26:11;;;;;;;;;;;17.90;75.70;;;;;;5065895;28;42897;-84
2023/03/14 09:28:37;;;;;;;;;;;18.00;76.00;;;;;;5065032;28;42826;-83
2023/03/14 09:31:09;;;;;;;;;;;18.10;76.60;;;;;;5066054;28;42919;-84
2023/03/14 09:33:35;;;;;;;;;;;18.00;76.20;;;;;;5065703;28;43401;-84
2023/03/14 09:36:00;;;;;;;;;;;18.00;76.70;;;;;;5065963;28;42913;-83
2023/03/14 09:38:26;;;;;;;;;;;18.10;75.40;;;;;;5065249;28;43609;-83
2023/03/14 09:40:52;;;;;;;;;;;18.00;76.40;;;;;;5065847;28;43146;-82
2023/03/14 09:43:18;;;;;;;;;;;18.10;76.10;;;;;;5046551;28;45134;-83
2023/03/14 09:45:45;;;;;;;;;;;18.10;76.40;;;;;;5065073;28;42936;-83
2023/03/14 09:48:11;;;;;;;;;;;;;;;;;;5065097;28;43402;-83
2023/03/14 09:50:38;;;;;;;;;;;18.00;75.10;;;;;;5065308;28;43005;-83
2023/03/14 09:53:11;;;;;;;;;;;17.90;75.20;;;;;;5064465;28;44046;-82
2023/03/14 09:55:36;;;;;;;;;;;18.00;75.50;;;;;;5064664;28;42950;-84
2023/03/14 09:58:05;;;;;;;;;;;18.00;76.20;;;;;;5065028;28;43331;-83
2023/03/14 10:00:31;;;;;;;;;;;18.00;76.80;;;;;;5065672;28;42793;-83
2023/03/14 10:03:06;;;;;;;;;;;18.10;77.50;;;;;;5065392;28;43778;-84
2023/03/14 10:05:31;;;;;;;;;;;17.90;75.40;;;;;;5064955;28;43069;-83
2023/03/14 10:07:57;;;;;;;;;;;17.90;77.10;;;;;;5064605;28;43562;-83
2023/03/14 10:10:24;;;;;;;;;;;18.00;77.10;;;;;;5065166;28;42959;-83
2023/03/14 10:13:12;;;;;;;;;;;18.00;77.30;;;;;;5065038;28;43355;-83
2023/03/14 10:15:38;;;;;;;;;;;17.90;76.00;;;;;;5065606;28;42836;-83
2023/03/14 10:18:03;;;;;;;;;;;18.00;77.20;;;;;;5065402;28;42950;-83
2023/03/14 10:20:36;;;;;;;;;;;18.00;77.10;;;;;;5065276;28;42951;-83
2023/03/14 10:23:03;;;;;;;;;;;18.00;76.30;;;;;;5064851;28;43632;-83
2023/03/14 10:25:30;;;;;;;;;;;18.30;78.30;;;;;;5065076;28;42758;-83
2023/03/14 10:27:55;;;;;;;;;;;18.00;77.60;;;;;;5065056;28;43742;-84
2023/03/14 10:30:29;;;;;;;;;;;17.90;78.00;;;;;;5046943;28;42886;-84
2023/03/14 10:32:55;;;;;;;;;;;18.00;78.20;;;;;;5065007;28;43583;-83
2023/03/14 10:35:22;;;;;;;;;;;18.00;79.20;;;;;;5046461;28;43031;-84
2023/03/14 10:37:47;;;;;;;;;;;;;;;;;;5064727;28;43832;-82
2023/03/14 10:40:13;;;;;;;;;;;;;;;;;;5066109;28;42908;-83
2023/03/14 10:42:39;;;;;;;;;;;;;;;;;;5068883;28;43517;-84
2023/03/14 10:45:07;;;;;;;;;;;;;;;;;;5068541;28;42769;-83
2023/03/14 10:47:33;;;;;;;;;;;;;;;;;;5068450;28;43469;-83
2023/03/14 10:49:59;;;;;;;;;;;;;;;;;;5068670;28;42800;-83
2023/03/14 10:52:25;;;;;;;;;;;17.90;78.10;;;;;;5068572;28;43719;-83
2023/03/14 10:54:58;;;;;;;;;;;17.80;78.20;;;;;;5067706;28;43042;-84
2023/03/14 10:57:23;;;;;;;;;;;17.90;77.00;;;;;;5067957;28;43014;-83
2023/03/14 10:59:50;;;;;;;;;;;18.00;77.80;;;;;;5067920;28;42982;-83
2023/03/14 11:02:19;;;;;;;;;;;18.10;77.50;;;;;;5068392;28;43453;-83
2023/03/14 11:04:53;;;;;;;;;;;17.90;76.70;;;;;;5067996;28;43046;-82
2023/03/14 11:07:23;;;;;;;;;;;18.10;77.60;;;;;;5068085;28;42938;-83
2023/03/14 11:10:01;;;;;;;;;;;18.10;78.90;;;;;;5075238;27;42942;-89
2023/03/14 11:12:26;;;;;;;;;;;18.00;77.30;;;;;;5070775;28;43093;-88
2023/03/14 11:14:57;;;;;;;;;;;18.00;77.30;;;;;;5068113;28;42896;-89
2023/03/14 11:17:30;;;;;;;;;;;18.10;77.90;;;;;;5067756;28;43049;-81
2023/03/14 11:20:07;;;;;;;;;;;18.00;77.90;;;;;;5066956;28;42937;-82
2023/03/14 11:22:33;;;;;;;;;;;18.00;78.90;;;;;;5061777;28;43567;-85
2023/03/14 11:24:58;;;;;;;;;;;17.80;81.20;;;;;;5068837;27;42979;-83
2023/03/14 11:27:33;;;;;;;;;;;17.50;81.40;;;;;;5075689;28;42845;-84
2023/03/14 11:30:19;;;;;;;;;;;17.70;81.60;;;;;;5071623;28;42976;-83
2023/03/14 11:32:56;;;;;;;;;;;17.60;82.40;;;;;;5087231;28;45151;-85
2023/03/14 11:35:48;;;;;;;;;;;17.40;82.10;;;;;;5086979;28;42924;-83
2023/03/14 11:38:32;;;;;;;;;;;17.40;81.80;;;;;;5047868;28;42994;-86
2023/03/14 11:40:58;;;;;;;;;;;17.60;82.50;;;;;;5071943;28;42894;-82
2023/03/14 11:43:28;;;;;;;;;;;17.30;83.70;;;;;;5066746;28;42983;-86
2023/03/14 11:45:56;;;;;;;;;;;17.80;84.00;;;;;;5066392;28;42717;-88
2023/03/14 11:48:21;;;;;;;;;;;17.40;84.20;;;;;;5064722;28;43550;-85
2023/03/14 11:50:49;;;;;;;;;;;17.30;84.00;;;;;;5067515;28;42866;-87
2023/03/14 11:53:21;;;;;;;;;;;17.40;84.20;;;;;;5071286;28;43328;-86
2023/03/14 11:55:48;;;;;;;;;;;17.50;83.30;;;;;;5086014;28;42960;-83
2023/03/14 11:58:17;;;;;;;;;;;17.60;84.40;;;;;;5085205;28;42950;-86
2023/03/14 12:00:44;;;;;;;;;;;17.30;84.50;;;;;;5086210;28;42991;-84
2023/03/14 12:03:30;;;;;;;;;;;17.70;84.80;;;;;;5086085;28;43044;-85
2023/03/14 12:05:55;;;;;;;;;;;17.10;84.00;;;;;;5064152;28;43115;-86
2023/03/14 12:08:42;;;;;;;;;;;17.30;85.10;;;;;;5084104;28;43105;-85
2023/03/14 12:11:13;;;;;;;;;;;17.30;83.20;;;;;;5067093;28;42961;-88
2023/03/14 12:13:39;;;;;;;;;;;17.60;82.90;;;;;;5050614;28;44017;-80
2023/03/14 12:16:06;;;;;;;;;;;17.30;84.40;;;;;;5084789;27;42874;-80
2023/03/14 12:18:42;;;;;;;;;;;17.30;84.50;;;;;;5081153;28;43521;-80
2023/03/14 12:21:09;;;;;;;;;;;17.30;84.50;;;;;;5066837;28;43014;-80
2023/03/14 12:23:37;;;;;;;;;;;17.30;84.60;;;;;;5066715;28;43011;-80
2023/03/14 12:26:11;;;;;;;;;;;17.30;84.30;;;;;;5066555;28;43102;-80
2023/03/14 12:28:38;;;;;;;;;;;17.40;83.70;;;;;;5064633;28;43161;-80
2023/03/14 12:31:04;;;;;;;;;;;;;;;;;;5066339;28;43343;-81
2023/03/14 12:33:30;;;;;;;;;;;;;;;;;;5066837;28;43723;-80
2023/03/14 12:35:56;;;;;;;;;;;;;;;;;;5066644;28;42961;-80
2023/03/14 12:38:22;;;;;;;;;;;;;;;;;;5066459;28;43751;-81
2023/03/14 12:41:06;;;;;;;;;;;17.60;82.10;;;;;;5066382;28;43069;-80
2023/03/14 12:43:33;;;;;;;;;;;17.40;81.50;;;;;;5047969;28;44664;-81
2023/03/14 12:46:07;;;;;;;;;;;17.60;82.00;;;;;;5066078;28;43010;-81
2023/03/14 12:48:33;;;;;;;;;;;17.50;80.80;;;;;;5066329;28;43383;-81
2023/03/14 12:51:03;;;;;;;;;;;17.60;81.80;;;;;;5066479;28;42982;-81
2023/03/14 12:53:28;;;;;;;;;;;17.60;80.20;;;;;;5065883;28;42877;-81
2023/03/14 12:56:14;;;;;;;;;;;17.60;81.30;;;;;;5066404;28;43089;-80
2023/03/14 12:58:58;;;;;;;;;;;17.70;81.20;;;;;;5051380;28;43028;-80
2023/03/14 13:01:24;;;;;;;;;;;17.70;80.50;;;;;;5066191;28;42879;-80
2023/03/14 13:03:53;;;;;;;;;;;17.60;81.50;;;;;;5045657;28;45409;-81
2023/03/14 13:06:38;;;;;;;;;;;17.40;81.70;;;;;;5047731;28;42828;-80
2023/03/14 13:09:22;;;;;;;;;;;17.60;80.90;;;;;;5064213;28;44408;-81
2023/03/14 13:11:48;;;;;;;;;;;17.50;81.60;;;;;;5066281;28;43111;-81
2023/03/14 13:14:13;;;;;;;;;;;17.30;82.30;;;;;;5066166;28;42938;-81
2023/03/14 13:16:39;;;;;;;;;;;17.30;82.80;;;;;;5066205;28;42945;-79
2023/03/14 13:19:15;;;;;;;;;;;17.10;82.90;;;;;;5066388;28;43876;-81
2023/03/14 13:21:41;;;;;;;;;;;17.10;83.10;;;;;;5066083;28;42900;-80
2023/03/14 13:24:18;;;;;;;;;;;17.00;84.00;;;;;;5065705;28;42955;-80
2023/03/14 13:26:44;;;;;;;;;;;17.10;83.20;;;;;;5065791;28;42961;-80
2023/03/14 13:29:22;;;;;;;;;;;17.30;83.30;;;;;;5065384;28;42836;-80
2023/03/14 13:31:49;;;;;;;;;;;17.20;82.60;;;;;;5065599;28;43062;-81
2023/03/14 13:34:14;;;;;;;;;;;17.20;83.80;;;;;;5065759;28;42943;-80
2023/03/14 13:36:40;;;;;;;;;;;17.30;82.70;;;;;;5065350;28;42756;-80
2023/03/14 13:39:17;;;;;;;;;;;17.20;82.60;;;;;;5065829;28;42950;-81
2023/03/14 13:41:43;;;;;;;;;;;17.40;82.40;;;;;;5065986;28;42861;-79
2023/03/14 13:44:14;;;;;;;;;;;17.30;83.70;;;;;;5065683;28;42791;-80
2023/03/14 13:46:39;;;;;;;;;;;17.40;83.20;;;;;;5065812;28;42900;-81
2023/03/14 13:49:09;;;;;;;;;;;17.30;82.60;;;;;;5065845;28;43936;-80
2023/03/14 13:51:37;;;;;;;;;;;17.30;82.60;;;;;;5047070;28;43054;-79
2023/03/14 13:54:03;;;;;;;;;;;17.30;82.80;;;;;;5064745;28;43126;-80
2023/03/14 13:56:30;;;;;;;;;;;17.20;83.60;;;;;;5064758;28;42971;-80
2023/03/14 13:58:56;;;;;;;;;;;17.20;82.50;;;;;;5065146;28;43957;-80
2023/03/14 14:01:27;;;;;;;;;;;17.40;82.20;;;;;;5065475;28;42903;-81
2023/03/14 14:03:54;;;;;;;;;;;16.40;80.70;;;;;;5065154;28;44073;-80
2023/03/14 14:06:20;;;;;;;;;;;17.60;81.80;;;;;;5065563;28;42734;-80
2023/03/14 14:08:45;;;;;;;;;;;17.40;81.90;;;;;;5064628;28;43892;-81
2023/03/14 14:11:18;;;;;;;;;;;17.30;81.80;;;;;;5064994;28;42985;-80
2023/03/14 14:13:44;;;;;;;;;;;17.30;81.70;;;;;;5065215;28;43038;-80
2023/03/14 14:16:10;;;;;;;;;;;17.50;81.40;;;;;;5064725;28;42951;-80
2023/03/14 14:18:35;;;;;;;;;;;17.50;81.40;;;;;;5065128;28;43380;-81
2023/03/14 14:21:02;;;;;;;;;;;17.40;81.30;;;;;;5065071;28;42817;-81
2023/03/14 14:23:28;;;;;;;;;;;17.50;81.30;;;;;;5064454;28;42979;-79
2023/03/14 14:25:55;;;;;;;;;;;17.50;81.60;;;;;;5065360;28;42943;-80
2023/03/14 14:28:25;;;;;;;;;;;17.50;81.20;;;;;;5065536;28;43897;-80
2023/03/14 14:31:09;;;;;;;;;;;17.40;80.80;;;;;;5065112;28;43001;-80
2023/03/14 14:33:39;;;;;;;;;;;17.40;80.20;;;;;;5063427;28;45412;-80
2023/03/14 14:36:12;;;;;;;;;;;17.60;80.20;;;;;;5064811;28;43432;-80
2023/03/14 14:38:38;;;;;;;;;;;17.70;81.50;;;;;;5064947;28;42939;-80